This is the latest recevied weather packets stored in our database for station/object EA1IXY-2. If no packets are shown the sender has not sent any weather packets the latest 10 day(s).
| Time | Temp. | Humidity | Pressure | Rain* | Wind** | Luminosity | Snow |
|---|---|---|---|---|---|---|---|
| 1777877038 | 38.89° C | 18% | 928.2 hPa | - | - | - | - |
| 1777876137 | 38.33° C | 19% | 928 hPa | - | - | - | - |
| 1777875237 | 38.33° C | 18% | 927.8 hPa | - | - | - | - |
| 1777874337 | 38.33° C | 17% | 927.7 hPa | - | - | - | - |
| 1777873437 | 37.78° C | 18% | 927.6 hPa | - | - | - | - |
| 1777872537 | 38.33° C | 17% | 927.5 hPa | - | - | - | - |
| 1777871637 | 38.33° C | 18% | 927.4 hPa | - | - | - | - |
| 1777870737 | 38.33° C | 17% | 927.5 hPa | - | - | - | - |
| 1777868937 | 36.67° C | 18% | 926.1 hPa | - | - | - | - |
| 1777868025 | 38.33° C | 18% | 927.7 hPa | - | - | - | - |
| 1777867125 | 37.78° C | 18% | 927.6 hPa | - | - | - | - |
| 1777866225 | 38.33° C | 17% | 927.6 hPa | - | - | - | - |
| 1777865325 | 38.33° C | 18% | 927.6 hPa | - | - | - | - |
| 1777864425 | 38.33° C | 18% | 927.7 hPa | - | - | - | - |
| 1777863524 | 37.78° C | 18% | 927.8 hPa | - | - | - | - |
| 1777862624 | 37.78° C | 18% | 927.8 hPa | - | - | - | - |
| 1777861724 | 38.33° C | 18% | 927.6 hPa | - | - | - | - |
| 1777860824 | 38.33° C | 18% | 927.6 hPa | - | - | - | - |
| 1777859924 | 37.22° C | 18% | 926 hPa | - | - | - | - |
| 1777859024 | 38.33° C | 17% | 927.8 hPa | - | - | - | - |
| 1777858127 | 37.22° C | 18% | 926.5 hPa | - | - | - | - |
| 1777857212 | 38.33° C | 17% | 927.7 hPa | - | - | - | - |
| 1777856312 | 37.78° C | 18% | 927.8 hPa | - | - | - | - |
| 1777855412 | 37.78° C | 18% | 927.7 hPa | - | - | - | - |
| 1777854512 | 37.78° C | 18% | 927.8 hPa | - | - | - | - |
* Rain since midnight (hover to see other rain measurements)
** Current wind speed in m/s (hover to see current wind gust speed)